sensor_id;sensor_type;location;lat;lon;timestamp;P1;durP1;ratioP1;P2;durP2;ratioP2
71947;SDS011;63257;55.082;38.772;2023-04-24T00:00:57;16.33;;;8.52;;
71947;SDS011;63257;55.082;38.772;2023-04-24T00:03:24;13.38;;;8.55;;
71947;SDS011;63257;55.082;38.772;2023-04-24T00:05:53;15.10;;;9.00;;
71947;SDS011;63257;55.082;38.772;2023-04-24T00:08:20;15.90;;;9.07;;
71947;SDS011;63257;55.082;38.772;2023-04-24T00:10:48;13.90;;;8.57;;
71947;SDS011;63257;55.082;38.772;2023-04-24T00:13:14;14.73;;;8.90;;
71947;SDS011;63257;55.082;38.772;2023-04-24T00:15:39;15.53;;;8.87;;
71947;SDS011;63257;55.082;38.772;2023-04-24T00:18:05;14.00;;;8.95;;
71947;SDS011;63257;55.082;38.772;2023-04-24T00:20:31;16.33;;;9.30;;
71947;SDS011;63257;55.082;38.772;2023-04-24T00:22:58;18.17;;;8.90;;
71947;SDS011;63257;55.082;38.772;2023-04-24T00:25:24;15.95;;;9.27;;
71947;SDS011;63257;55.082;38.772;2023-04-24T00:27:50;16.07;;;8.63;;
71947;SDS011;63257;55.082;38.772;2023-04-24T00:30:16;15.82;;;9.02;;
71947;SDS011;63257;55.082;38.772;2023-04-24T00:32:42;14.98;;;8.90;;
71947;SDS011;63257;55.082;38.772;2023-04-24T00:35:08;16.53;;;9.70;;
71947;SDS011;63257;55.082;38.772;2023-04-24T00:37:34;17.13;;;9.43;;
71947;SDS011;63257;55.082;38.772;2023-04-24T00:40:01;16.85;;;9.32;;
71947;SDS011;63257;55.082;38.772;2023-04-24T00:42:29;16.63;;;9.57;;
71947;SDS011;63257;55.082;38.772;2023-04-24T00:44:56;16.65;;;9.77;;
71947;SDS011;63257;55.082;38.772;2023-04-24T00:47:23;17.50;;;9.63;;
71947;SDS011;63257;55.082;38.772;2023-04-24T00:49:49;14.57;;;9.13;;
71947;SDS011;63257;55.082;38.772;2023-04-24T00:52:15;17.53;;;9.53;;
71947;SDS011;63257;55.082;38.772;2023-04-24T00:54:43;19.88;;;10.23;;
71947;SDS011;63257;55.082;38.772;2023-04-24T00:57:10;17.20;;;10.15;;
71947;SDS011;63257;55.082;38.772;2023-04-24T00:59:40;20.57;;;10.80;;
71947;SDS011;63257;55.082;38.772;2023-04-24T01:02:07;17.83;;;10.57;;
71947;SDS011;63257;55.082;38.772;2023-04-24T01:04:35;18.98;;;10.30;;
71947;SDS011;63257;55.082;38.772;2023-04-24T01:07:04;19.77;;;11.17;;
71947;SDS011;63257;55.082;38.772;2023-04-24T01:09:35;17.05;;;11.10;;
71947;SDS011;63257;55.082;38.772;2023-04-24T01:12:03;19.40;;;11.05;;
71947;SDS011;63257;55.082;38.772;2023-04-24T01:14:29;18.90;;;10.70;;
71947;SDS011;63257;55.082;38.772;2023-04-24T01:16:55;20.35;;;11.40;;
71947;SDS011;63257;55.082;38.772;2023-04-24T01:19:23;17.90;;;10.73;;
71947;SDS011;63257;55.082;38.772;2023-04-24T01:21:50;18.85;;;10.57;;
71947;SDS011;63257;55.082;38.772;2023-04-24T01:24:17;20.00;;;11.00;;
71947;SDS011;63257;55.082;38.772;2023-04-24T01:26:45;17.50;;;11.13;;
71947;SDS011;63257;55.082;38.772;2023-04-24T01:29:11;18.05;;;10.38;;
71947;SDS011;63257;55.082;38.772;2023-04-24T01:31:37;22.40;;;11.00;;
71947;SDS011;63257;55.082;38.772;2023-04-24T01:34:05;16.77;;;10.43;;
71947;SDS011;63257;55.082;38.772;2023-04-24T01:36:31;20.45;;;11.10;;
71947;SDS011;63257;55.082;38.772;2023-04-24T01:38:58;20.45;;;10.50;;
71947;SDS011;63257;55.082;38.772;2023-04-24T01:41:25;19.20;;;10.07;;
71947;SDS011;63257;55.082;38.772;2023-04-24T01:43:51;18.50;;;10.32;;
71947;SDS011;63257;55.082;38.772;2023-04-24T01:46:19;16.55;;;10.10;;
71947;SDS011;63257;55.082;38.772;2023-04-24T01:48:45;18.33;;;10.27;;
71947;SDS011;63257;55.082;38.772;2023-04-24T01:51:11;18.55;;;10.07;;
71947;SDS011;63257;55.082;38.772;2023-04-24T01:53:38;20.60;;;10.30;;
71947;SDS011;63257;55.082;38.772;2023-04-24T01:56:03;17.63;;;10.23;;
71947;SDS011;63257;55.082;38.772;2023-04-24T01:58:30;16.05;;;9.88;;
71947;SDS011;63257;55.082;38.772;2023-04-24T02:00:56;18.70;;;10.30;;
71947;SDS011;63257;55.082;38.772;2023-04-24T02:03:24;20.10;;;10.40;;
71947;SDS011;63257;55.082;38.772;2023-04-24T02:05:51;17.70;;;10.27;;
71947;SDS011;63257;55.082;38.772;2023-04-24T02:08:17;17.17;;;10.32;;
71947;SDS011;63257;55.082;38.772;2023-04-24T02:10:43;18.25;;;10.13;;
71947;SDS011;63257;55.082;38.772;2023-04-24T02:13:10;18.83;;;10.50;;
71947;SDS011;63257;55.082;38.772;2023-04-24T02:15:36;26.52;;;11.18;;
71947;SDS011;63257;55.082;38.772;2023-04-24T02:18:03;22.77;;;10.95;;
71947;SDS011;63257;55.082;38.772;2023-04-24T02:20:31;18.63;;;10.57;;
71947;SDS011;63257;55.082;38.772;2023-04-24T02:22:59;20.42;;;10.18;;
71947;SDS011;63257;55.082;38.772;2023-04-24T02:25:25;16.95;;;10.20;;
71947;SDS011;63257;55.082;38.772;2023-04-24T02:27:55;20.55;;;10.38;;
71947;SDS011;63257;55.082;38.772;2023-04-24T02:30:21;19.48;;;10.13;;
71947;SDS011;63257;55.082;38.772;2023-04-24T02:32:46;19.23;;;10.63;;
71947;SDS011;63257;55.082;38.772;2023-04-24T02:35:13;18.47;;;9.93;;
71947;SDS011;63257;55.082;38.772;2023-04-24T02:37:38;18.60;;;10.07;;
71947;SDS011;63257;55.082;38.772;2023-04-24T02:40:05;18.83;;;10.55;;
71947;SDS011;63257;55.082;38.772;2023-04-24T02:42:31;17.40;;;10.05;;
71947;SDS011;63257;55.082;38.772;2023-04-24T02:44:57;17.88;;;9.98;;
71947;SDS011;63257;55.082;38.772;2023-04-24T02:47:24;21.17;;;9.88;;
71947;SDS011;63257;55.082;38.772;2023-04-24T02:49:49;16.70;;;9.82;;
71947;SDS011;63257;55.082;38.772;2023-04-24T02:52:15;19.23;;;10.00;;
71947;SDS011;63257;55.082;38.772;2023-04-24T02:54:42;18.00;;;10.05;;
71947;SDS011;63257;55.082;38.772;2023-04-24T02:57:09;16.83;;;10.43;;
71947;SDS011;63257;55.082;38.772;2023-04-24T02:59:36;17.67;;;9.57;;
71947;SDS011;63257;55.082;38.772;2023-04-24T03:02:02;17.95;;;9.43;;
71947;SDS011;63257;55.082;38.772;2023-04-24T03:04:28;20.70;;;10.50;;
71947;SDS011;63257;55.082;38.772;2023-04-24T03:06:54;19.53;;;11.13;;
71947;SDS011;63257;55.082;38.772;2023-04-24T03:09:20;18.63;;;10.30;;
71947;SDS011;63257;55.082;38.772;2023-04-24T03:11:47;19.73;;;10.65;;
71947;SDS011;63257;55.082;38.772;2023-04-24T03:14:14;22.67;;;11.50;;
71947;SDS011;63257;55.082;38.772;2023-04-24T03:16:39;16.85;;;10.13;;
71947;SDS011;63257;55.082;38.772;2023-04-24T03:19:06;22.88;;;10.98;;
71947;SDS011;63257;55.082;38.772;2023-04-24T03:21:37;17.98;;;10.70;;
71947;SDS011;63257;55.082;38.772;2023-04-24T03:24:09;20.15;;;10.70;;
71947;SDS011;63257;55.082;38.772;2023-04-24T03:26:36;18.13;;;10.00;;
71947;SDS011;63257;55.082;38.772;2023-04-24T03:29:15;19.63;;;10.25;;
71947;SDS011;63257;55.082;38.772;2023-04-24T03:31:41;16.80;;;9.63;;
71947;SDS011;63257;55.082;38.772;2023-04-24T03:34:07;19.33;;;10.25;;
71947;SDS011;63257;55.082;38.772;2023-04-24T03:36:34;16.85;;;10.07;;
71947;SDS011;63257;55.082;38.772;2023-04-24T03:38:59;20.13;;;10.82;;
71947;SDS011;63257;55.082;38.772;2023-04-24T03:41:28;20.50;;;11.63;;
71947;SDS011;63257;55.082;38.772;2023-04-24T03:44:15;20.27;;;11.10;;
71947;SDS011;63257;55.082;38.772;2023-04-24T03:46:44;20.35;;;10.23;;
71947;SDS011;63257;55.082;38.772;2023-04-24T03:49:10;19.43;;;10.50;;
71947;SDS011;63257;55.082;38.772;2023-04-24T03:51:40;17.10;;;10.18;;
71947;SDS011;63257;55.082;38.772;2023-04-24T03:54:16;17.70;;;10.00;;
71947;SDS011;63257;55.082;38.772;2023-04-24T03:57:00;21.27;;;10.10;;
71947;SDS011;63257;55.082;38.772;2023-04-24T04:00:52;19.65;;;10.45;;
71947;SDS011;63257;55.082;38.772;2023-04-24T04:03:38;20.90;;;10.85;;
71947;SDS011;63257;55.082;38.772;2023-04-24T04:06:09;23.40;;;10.85;;
71947;SDS011;63257;55.082;38.772;2023-04-24T04:08:37;23.83;;;10.00;;
71947;SDS011;63257;55.082;38.772;2023-04-24T04:11:06;19.43;;;10.17;;
71947;SDS011;63257;55.082;38.772;2023-04-24T04:13:32;19.92;;;10.07;;
71947;SDS011;63257;55.082;38.772;2023-04-24T04:15:58;19.48;;;10.73;;
71947;SDS011;63257;55.082;38.772;2023-04-24T04:18:24;21.00;;;10.48;;
71947;SDS011;63257;55.082;38.772;2023-04-24T04:29:47;17.80;;;10.13;;
71947;SDS011;63257;55.082;38.772;2023-04-24T04:32:14;24.92;;;10.43;;
71947;SDS011;63257;55.082;38.772;2023-04-24T04:34:41;21.17;;;10.70;;
71947;SDS011;63257;55.082;38.772;2023-04-24T04:37:10;18.45;;;10.45;;
71947;SDS011;63257;55.082;38.772;2023-04-24T04:39:45;19.45;;;10.80;;
71947;SDS011;63257;55.082;38.772;2023-04-24T04:46:39;26.25;;;10.70;;
71947;SDS011;63257;55.082;38.772;2023-04-24T04:49:32;20.57;;;11.10;;
71947;SDS011;63257;55.082;38.772;2023-04-24T04:51:59;21.35;;;11.05;;
71947;SDS011;63257;55.082;38.772;2023-04-24T04:54:26;23.80;;;10.85;;
71947;SDS011;63257;55.082;38.772;2023-04-24T05:01:14;20.58;;;10.73;;
71947;SDS011;63257;55.082;38.772;2023-04-24T05:03:43;20.53;;;10.87;;
71947;SDS011;63257;55.082;38.772;2023-04-24T05:10:31;22.27;;;11.15;;
71947;SDS011;63257;55.082;38.772;2023-04-24T05:12:56;29.33;;;12.90;;
71947;SDS011;63257;55.082;38.772;2023-04-24T05:19:40;20.98;;;10.70;;
71947;SDS011;63257;55.082;38.772;2023-04-24T05:26:19;21.27;;;10.82;;
71947;SDS011;63257;55.082;38.772;2023-04-24T05:28:45;24.13;;;10.55;;
71947;SDS011;63257;55.082;38.772;2023-04-24T05:31:11;23.17;;;11.07;;
71947;SDS011;63257;55.082;38.772;2023-04-24T05:33:38;26.17;;;12.07;;
71947;SDS011;63257;55.082;38.772;2023-04-24T05:36:04;25.35;;;11.95;;
71947;SDS011;63257;55.082;38.772;2023-04-24T05:38:31;18.90;;;9.60;;
71947;SDS011;63257;55.082;38.772;2023-04-24T05:40:57;19.77;;;10.07;;
71947;SDS011;63257;55.082;38.772;2023-04-24T05:47:24;33.63;;;10.93;;
71947;SDS011;63257;55.082;38.772;2023-04-24T05:54:10;24.33;;;10.57;;
71947;SDS011;63257;55.082;38.772;2023-04-24T05:56:38;20.60;;;10.38;;
71947;SDS011;63257;55.082;38.772;2023-04-24T05:59:05;19.42;;;10.20;;
71947;SDS011;63257;55.082;38.772;2023-04-24T06:01:31;31.00;;;11.05;;
71947;SDS011;63257;55.082;38.772;2023-04-24T06:08:24;26.95;;;11.48;;
71947;SDS011;63257;55.082;38.772;2023-04-24T06:10:51;20.08;;;12.10;;
71947;SDS011;63257;55.082;38.772;2023-04-24T06:13:19;13.80;;;7.88;;
71947;SDS011;63257;55.082;38.772;2023-04-24T06:16:05;18.50;;;9.25;;
71947;SDS011;63257;55.082;38.772;2023-04-24T06:18:34;16.40;;;8.50;;
71947;SDS011;63257;55.082;38.772;2023-04-24T06:21:01;22.15;;;8.93;;
71947;SDS011;63257;55.082;38.772;2023-04-24T06:23:29;13.75;;;8.20;;
71947;SDS011;63257;55.082;38.772;2023-04-24T06:25:57;18.45;;;8.40;;
71947;SDS011;63257;55.082;38.772;2023-04-24T06:28:24;15.13;;;8.40;;
71947;SDS011;63257;55.082;38.772;2023-04-24T06:30:51;23.20;;;8.40;;
71947;SDS011;63257;55.082;38.772;2023-04-24T06:33:18;17.40;;;9.25;;
71947;SDS011;63257;55.082;38.772;2023-04-24T06:35:44;13.10;;;8.13;;
71947;SDS011;63257;55.082;38.772;2023-04-24T06:38:10;18.30;;;8.43;;
71947;SDS011;63257;55.082;38.772;2023-04-24T06:40:37;15.25;;;7.78;;
71947;SDS011;63257;55.082;38.772;2023-04-24T06:43:02;19.63;;;8.17;;
71947;SDS011;63257;55.082;38.772;2023-04-24T06:45:29;19.00;;;8.73;;
71947;SDS011;63257;55.082;38.772;2023-04-24T06:47:55;13.20;;;8.18;;
71947;SDS011;63257;55.082;38.772;2023-04-24T06:50:22;18.85;;;10.70;;
71947;SDS011;63257;55.082;38.772;2023-04-24T06:52:48;14.77;;;7.73;;
71947;SDS011;63257;55.082;38.772;2023-04-24T06:55:14;20.98;;;7.30;;
71947;SDS011;63257;55.082;38.772;2023-04-24T06:57:43;14.90;;;7.63;;
71947;SDS011;63257;55.082;38.772;2023-04-24T07:00:10;17.33;;;7.80;;
71947;SDS011;63257;55.082;38.772;2023-04-24T07:02:36;12.97;;;7.03;;
71947;SDS011;63257;55.082;38.772;2023-04-24T07:05:03;15.23;;;6.45;;
71947;SDS011;63257;55.082;38.772;2023-04-24T07:07:31;15.82;;;7.43;;
71947;SDS011;63257;55.082;38.772;2023-04-24T07:09:57;18.75;;;9.77;;
71947;SDS011;63257;55.082;38.772;2023-04-24T07:12:23;12.93;;;7.20;;
71947;SDS011;63257;55.082;38.772;2023-04-24T07:14:50;12.32;;;5.88;;
71947;SDS011;63257;55.082;38.772;2023-04-24T07:17:16;11.35;;;5.68;;
71947;SDS011;63257;55.082;38.772;2023-04-24T07:19:42;15.23;;;5.90;;
71947;SDS011;63257;55.082;38.772;2023-04-24T07:22:08;17.75;;;6.20;;
71947;SDS011;63257;55.082;38.772;2023-04-24T07:24:37;14.27;;;5.90;;
71947;SDS011;63257;55.082;38.772;2023-04-24T07:27:03;55.10;;;9.52;;
71947;SDS011;63257;55.082;38.772;2023-04-24T07:29:29;17.00;;;6.15;;
71947;SDS011;63257;55.082;38.772;2023-04-24T07:31:55;11.23;;;5.70;;
71947;SDS011;63257;55.082;38.772;2023-04-24T07:34:22;14.87;;;5.83;;
71947;SDS011;63257;55.082;38.772;2023-04-24T07:36:48;16.58;;;6.40;;
71947;SDS011;63257;55.082;38.772;2023-04-24T07:39:14;10.45;;;5.40;;
71947;SDS011;63257;55.082;38.772;2023-04-24T07:41:39;17.42;;;6.30;;
71947;SDS011;63257;55.082;38.772;2023-04-24T07:44:05;11.07;;;6.07;;
71947;SDS011;63257;55.082;38.772;2023-04-24T07:46:31;9.45;;;4.90;;
71947;SDS011;63257;55.082;38.772;2023-04-24T07:48:57;42.25;;;9.82;;
71947;SDS011;63257;55.082;38.772;2023-04-24T07:51:24;11.00;;;4.97;;
71947;SDS011;63257;55.082;38.772;2023-04-24T07:53:53;17.00;;;5.55;;
71947;SDS011;63257;55.082;38.772;2023-04-24T07:56:20;15.33;;;4.60;;
71947;SDS011;63257;55.082;38.772;2023-04-24T07:58:46;8.32;;;3.88;;
71947;SDS011;63257;55.082;38.772;2023-04-24T08:01:13;7.85;;;4.00;;
71947;SDS011;63257;55.082;38.772;2023-04-24T08:03:39;18.45;;;4.95;;
71947;SDS011;63257;55.082;38.772;2023-04-24T08:06:04;12.27;;;4.33;;
71947;SDS011;63257;55.082;38.772;2023-04-24T08:08:30;7.43;;;3.75;;
71947;SDS011;63257;55.082;38.772;2023-04-24T08:10:56;27.02;;;5.38;;
71947;SDS011;63257;55.082;38.772;2023-04-24T08:13:22;11.10;;;3.93;;
71947;SDS011;63257;55.082;38.772;2023-04-24T08:15:48;12.43;;;3.85;;
71947;SDS011;63257;55.082;38.772;2023-04-24T08:18:14;9.27;;;3.73;;
71947;SDS011;63257;55.082;38.772;2023-04-24T08:20:41;13.05;;;4.80;;
71947;SDS011;63257;55.082;38.772;2023-04-24T08:23:09;9.60;;;4.00;;
71947;SDS011;63257;55.082;38.772;2023-04-24T08:25:35;11.32;;;4.22;;
71947;SDS011;63257;55.082;38.772;2023-04-24T08:28:02;10.33;;;4.93;;
71947;SDS011;63257;55.082;38.772;2023-04-24T08:30:29;8.80;;;4.63;;
71947;SDS011;63257;55.082;38.772;2023-04-24T08:32:56;12.32;;;4.20;;
71947;SDS011;63257;55.082;38.772;2023-04-24T08:35:22;8.75;;;4.32;;
71947;SDS011;63257;55.082;38.772;2023-04-24T08:37:48;11.85;;;8.00;;
71947;SDS011;63257;55.082;38.772;2023-04-24T08:40:15;7.20;;;3.60;;
71947;SDS011;63257;55.082;38.772;2023-04-24T08:42:42;14.60;;;4.68;;
71947;SDS011;63257;55.082;38.772;2023-04-24T08:45:09;28.23;;;6.03;;
71947;SDS011;63257;55.082;38.772;2023-04-24T08:47:37;10.48;;;4.88;;
71947;SDS011;63257;55.082;38.772;2023-04-24T08:50:04;10.98;;;4.97;;
71947;SDS011;63257;55.082;38.772;2023-04-24T08:52:34;10.30;;;5.40;;
71947;SDS011;63257;55.082;38.772;2023-04-24T08:55:01;11.18;;;4.97;;
71947;SDS011;63257;55.082;38.772;2023-04-24T08:57:31;13.02;;;4.75;;
71947;SDS011;63257;55.082;38.772;2023-04-24T08:59:58;7.38;;;4.78;;
71947;SDS011;63257;55.082;38.772;2023-04-24T09:02:26;9.30;;;5.00;;
71947;SDS011;63257;55.082;38.772;2023-04-24T09:04:52;7.30;;;4.30;;
71947;SDS011;63257;55.082;38.772;2023-04-24T09:07:19;9.07;;;4.55;;
71947;SDS011;63257;55.082;38.772;2023-04-24T09:09:47;10.27;;;4.85;;
71947;SDS011;63257;55.082;38.772;2023-04-24T09:12:15;7.70;;;4.22;;
71947;SDS011;63257;55.082;38.772;2023-04-24T09:14:43;13.23;;;4.90;;
71947;SDS011;63257;55.082;38.772;2023-04-24T09:17:15;7.90;;;4.70;;
71947;SDS011;63257;55.082;38.772;2023-04-24T09:19:41;8.68;;;4.82;;
71947;SDS011;63257;55.082;38.772;2023-04-24T09:22:08;9.52;;;5.00;;
71947;SDS011;63257;55.082;38.772;2023-04-24T09:24:34;12.43;;;4.93;;
71947;SDS011;63257;55.082;38.772;2023-04-24T09:29:57;17.77;;;9.40;;
71947;SDS011;63257;55.082;38.772;2023-04-24T09:32:45;7.78;;;4.75;;
71947;SDS011;63257;55.082;38.772;2023-04-24T09:35:30;9.02;;;5.07;;
71947;SDS011;63257;55.082;38.772;2023-04-24T09:37:57;14.88;;;5.72;;
71947;SDS011;63257;55.082;38.772;2023-04-24T09:40:25;8.37;;;5.10;;
71947;SDS011;63257;55.082;38.772;2023-04-24T09:47:21;10.02;;;5.35;;
71947;SDS011;63257;55.082;38.772;2023-04-24T09:49:49;9.68;;;5.47;;
71947;SDS011;63257;55.082;38.772;2023-04-24T09:52:15;9.80;;;5.40;;
71947;SDS011;63257;55.082;38.772;2023-04-24T09:54:41;12.38;;;6.32;;
71947;SDS011;63257;55.082;38.772;2023-04-24T09:57:07;12.73;;;5.90;;
71947;SDS011;63257;55.082;38.772;2023-04-24T09:59:41;11.87;;;6.37;;
71947;SDS011;63257;55.082;38.772;2023-04-24T10:02:16;10.63;;;5.60;;
71947;SDS011;63257;55.082;38.772;2023-04-24T10:04:53;10.93;;;5.53;;
71947;SDS011;63257;55.082;38.772;2023-04-24T10:07:21;11.13;;;5.70;;
71947;SDS011;63257;55.082;38.772;2023-04-24T10:09:47;19.03;;;6.37;;
71947;SDS011;63257;55.082;38.772;2023-04-24T10:12:39;11.30;;;5.85;;
71947;SDS011;63257;55.082;38.772;2023-04-24T10:15:06;15.75;;;6.03;;
71947;SDS011;63257;55.082;38.772;2023-04-24T10:17:34;16.60;;;6.18;;
71947;SDS011;63257;55.082;38.772;2023-04-24T10:20:01;13.40;;;6.10;;
71947;SDS011;63257;55.082;38.772;2023-04-24T10:22:29;16.77;;;6.47;;
71947;SDS011;63257;55.082;38.772;2023-04-24T10:24:59;8.90;;;5.95;;
71947;SDS011;63257;55.082;38.772;2023-04-24T10:27:26;10.30;;;6.05;;
71947;SDS011;63257;55.082;38.772;2023-04-24T10:29:52;13.43;;;6.35;;
71947;SDS011;63257;55.082;38.772;2023-04-24T10:32:19;12.10;;;6.30;;
71947;SDS011;63257;55.082;38.772;2023-04-24T10:34:45;10.53;;;5.63;;
71947;SDS011;63257;55.082;38.772;2023-04-24T10:37:11;18.05;;;6.65;;
71947;SDS011;63257;55.082;38.772;2023-04-24T10:39:38;11.55;;;5.90;;
71947;SDS011;63257;55.082;38.772;2023-04-24T10:42:15;12.83;;;6.17;;
71947;SDS011;63257;55.082;38.772;2023-04-24T10:44:41;13.40;;;6.30;;
71947;SDS011;63257;55.082;38.772;2023-04-24T10:47:12;13.05;;;5.72;;
71947;SDS011;63257;55.082;38.772;2023-04-24T10:49:39;9.77;;;6.22;;
71947;SDS011;63257;55.082;38.772;2023-04-24T10:52:05;13.33;;;6.10;;
71947;SDS011;63257;55.082;38.772;2023-04-24T10:59:49;11.93;;;6.00;;
71947;SDS011;63257;55.082;38.772;2023-04-24T11:02:17;11.10;;;5.97;;
71947;SDS011;63257;55.082;38.772;2023-04-24T11:04:44;14.65;;;5.75;;
71947;SDS011;63257;55.082;38.772;2023-04-24T11:07:13;10.63;;;6.07;;
71947;SDS011;63257;55.082;38.772;2023-04-24T11:09:39;9.82;;;6.30;;
71947;SDS011;63257;55.082;38.772;2023-04-24T11:12:11;13.83;;;6.20;;
71947;SDS011;63257;55.082;38.772;2023-04-24T11:17:37;8.93;;;5.70;;
71947;SDS011;63257;55.082;38.772;2023-04-24T11:20:09;7.90;;;5.90;;
71947;SDS011;63257;55.082;38.772;2023-04-24T11:22:38;12.38;;;6.28;;
71947;SDS011;63257;55.082;38.772;2023-04-24T11:34:11;11.48;;;5.50;;
71947;SDS011;63257;55.082;38.772;2023-04-24T11:36:40;12.90;;;5.80;;
71947;SDS011;63257;55.082;38.772;2023-04-24T11:39:08;12.00;;;6.30;;
71947;SDS011;63257;55.082;38.772;2023-04-24T11:41:35;11.67;;;7.07;;
71947;SDS011;63257;55.082;38.772;2023-04-24T11:44:02;13.65;;;5.85;;
71947;SDS011;63257;55.082;38.772;2023-04-24T11:46:29;10.13;;;5.10;;
71947;SDS011;63257;55.082;38.772;2023-04-24T11:48:57;13.93;;;5.50;;
71947;SDS011;63257;55.082;38.772;2023-04-24T11:51:24;17.15;;;6.22;;
71947;SDS011;63257;55.082;38.772;2023-04-24T11:53:55;14.00;;;6.67;;
71947;SDS011;63257;55.082;38.772;2023-04-24T11:56:22;14.20;;;6.40;;
71947;SDS011;63257;55.082;38.772;2023-04-24T11:58:51;14.15;;;6.78;;
71947;SDS011;63257;55.082;38.772;2023-04-24T12:01:18;13.48;;;6.70;;
71947;SDS011;63257;55.082;38.772;2023-04-24T12:03:47;17.40;;;6.80;;
71947;SDS011;63257;55.082;38.772;2023-04-24T12:06:13;9.10;;;5.93;;
71947;SDS011;63257;55.082;38.772;2023-04-24T12:08:39;12.07;;;6.13;;
71947;SDS011;63257;55.082;38.772;2023-04-24T12:15:18;11.48;;;6.40;;
71947;SDS011;63257;55.082;38.772;2023-04-24T12:17:45;11.70;;;5.90;;
71947;SDS011;63257;55.082;38.772;2023-04-24T12:20:11;10.07;;;5.93;;
71947;SDS011;63257;55.082;38.772;2023-04-24T12:25:11;10.50;;;5.95;;
71947;SDS011;63257;55.082;38.772;2023-04-24T12:27:37;11.85;;;6.30;;
71947;SDS011;63257;55.082;38.772;2023-04-24T12:30:04;12.07;;;6.90;;
71947;SDS011;63257;55.082;38.772;2023-04-24T12:32:32;12.82;;;6.60;;
71947;SDS011;63257;55.082;38.772;2023-04-24T12:34:58;11.57;;;7.07;;
71947;SDS011;63257;55.082;38.772;2023-04-24T12:37:24;9.67;;;6.40;;
71947;SDS011;63257;55.082;38.772;2023-04-24T12:39:58;9.45;;;6.45;;
71947;SDS011;63257;55.082;38.772;2023-04-24T12:42:28;13.57;;;6.60;;
71947;SDS011;63257;55.082;38.772;2023-04-24T12:44:56;10.13;;;5.40;;
71947;SDS011;63257;55.082;38.772;2023-04-24T12:47:30;10.77;;;5.40;;
71947;SDS011;63257;55.082;38.772;2023-04-24T12:49:56;9.27;;;5.60;;
71947;SDS011;63257;55.082;38.772;2023-04-24T12:52:23;10.05;;;5.45;;
71947;SDS011;63257;55.082;38.772;2023-04-24T12:54:54;8.48;;;5.28;;
71947;SDS011;63257;55.082;38.772;2023-04-24T12:57:25;9.32;;;5.30;;
71947;SDS011;63257;55.082;38.772;2023-04-24T12:59:53;9.68;;;5.15;;
71947;SDS011;63257;55.082;38.772;2023-04-24T13:02:22;10.43;;;5.50;;
71947;SDS011;63257;55.082;38.772;2023-04-24T13:04:49;9.23;;;5.25;;
71947;SDS011;63257;55.082;38.772;2023-04-24T13:07:15;9.88;;;5.60;;
71947;SDS011;63257;55.082;38.772;2023-04-24T13:09:42;13.23;;;6.25;;
71947;SDS011;63257;55.082;38.772;2023-04-24T13:12:09;14.20;;;6.18;;
71947;SDS011;63257;55.082;38.772;2023-04-24T13:14:35;10.83;;;6.00;;
71947;SDS011;63257;55.082;38.772;2023-04-24T13:17:02;12.27;;;5.80;;
71947;SDS011;63257;55.082;38.772;2023-04-24T13:19:29;11.43;;;6.00;;
71947;SDS011;63257;55.082;38.772;2023-04-24T13:21:57;10.50;;;6.38;;
71947;SDS011;63257;55.082;38.772;2023-04-24T13:24:24;8.23;;;6.43;;
71947;SDS011;63257;55.082;38.772;2023-04-24T13:26:50;12.97;;;6.57;;
71947;SDS011;63257;55.082;38.772;2023-04-24T13:29:17;8.98;;;6.68;;
71947;SDS011;63257;55.082;38.772;2023-04-24T13:31:42;9.88;;;6.60;;
71947;SDS011;63257;55.082;38.772;2023-04-24T13:34:08;11.20;;;6.78;;
71947;SDS011;63257;55.082;38.772;2023-04-24T13:36:34;13.70;;;6.73;;
71947;SDS011;63257;55.082;38.772;2023-04-24T13:39:00;12.70;;;7.10;;
71947;SDS011;63257;55.082;38.772;2023-04-24T13:41:27;9.93;;;6.53;;
71947;SDS011;63257;55.082;38.772;2023-04-24T13:43:53;14.90;;;6.50;;
71947;SDS011;63257;55.082;38.772;2023-04-24T13:46:19;9.18;;;6.70;;
71947;SDS011;63257;55.082;38.772;2023-04-24T13:48:45;7.18;;;6.00;;
71947;SDS011;63257;55.082;38.772;2023-04-24T13:51:11;12.60;;;6.57;;
71947;SDS011;63257;55.082;38.772;2023-04-24T13:53:37;10.00;;;6.70;;
71947;SDS011;63257;55.082;38.772;2023-04-24T13:56:04;9.90;;;6.65;;
71947;SDS011;63257;55.082;38.772;2023-04-24T13:58:34;8.85;;;6.38;;
71947;SDS011;63257;55.082;38.772;2023-04-24T14:01:04;13.18;;;6.93;;
71947;SDS011;63257;55.082;38.772;2023-04-24T14:03:30;10.67;;;6.43;;
71947;SDS011;63257;55.082;38.772;2023-04-24T14:05:56;9.60;;;6.13;;
71947;SDS011;63257;55.082;38.772;2023-04-24T14:08:22;12.48;;;6.40;;
71947;SDS011;63257;55.082;38.772;2023-04-24T14:10:49;10.05;;;6.43;;
71947;SDS011;63257;55.082;38.772;2023-04-24T14:13:16;7.75;;;6.40;;
71947;SDS011;63257;55.082;38.772;2023-04-24T14:15:42;8.83;;;6.10;;
71947;SDS011;63257;55.082;38.772;2023-04-24T14:18:08;10.05;;;6.15;;
71947;SDS011;63257;55.082;38.772;2023-04-24T14:20:34;9.60;;;6.50;;
71947;SDS011;63257;55.082;38.772;2023-04-24T14:23:00;8.73;;;6.38;;
71947;SDS011;63257;55.082;38.772;2023-04-24T14:25:26;11.07;;;6.40;;
71947;SDS011;63257;55.082;38.772;2023-04-24T14:27:52;9.48;;;6.18;;
71947;SDS011;63257;55.082;38.772;2023-04-24T14:30:18;8.30;;;6.43;;
71947;SDS011;63257;55.082;38.772;2023-04-24T14:32:44;10.27;;;6.22;;
71947;SDS011;63257;55.082;38.772;2023-04-24T14:35:10;9.82;;;6.20;;
71947;SDS011;63257;55.082;38.772;2023-04-24T14:37:36;10.35;;;6.70;;
71947;SDS011;63257;55.082;38.772;2023-04-24T14:40:03;9.45;;;6.38;;
71947;SDS011;63257;55.082;38.772;2023-04-24T14:42:32;11.43;;;6.82;;
71947;SDS011;63257;55.082;38.772;2023-04-24T14:44:58;11.43;;;6.03;;
71947;SDS011;63257;55.082;38.772;2023-04-24T14:47:24;8.65;;;6.70;;
71947;SDS011;63257;55.082;38.772;2023-04-24T14:49:51;10.93;;;6.82;;
71947;SDS011;63257;55.082;38.772;2023-04-24T14:52:17;10.55;;;6.40;;
71947;SDS011;63257;55.082;38.772;2023-04-24T14:54:43;9.83;;;6.30;;
71947;SDS011;63257;55.082;38.772;2023-04-24T14:57:09;9.43;;;6.07;;
71947;SDS011;63257;55.082;38.772;2023-04-24T14:59:35;11.95;;;6.35;;
71947;SDS011;63257;55.082;38.772;2023-04-24T15:02:01;12.30;;;6.10;;
71947;SDS011;63257;55.082;38.772;2023-04-24T15:04:27;8.17;;;5.83;;
71947;SDS011;63257;55.082;38.772;2023-04-24T15:06:54;13.10;;;6.43;;
71947;SDS011;63257;55.082;38.772;2023-04-24T15:09:21;9.50;;;6.70;;
71947;SDS011;63257;55.082;38.772;2023-04-24T15:11:49;11.60;;;6.53;;
71947;SDS011;63257;55.082;38.772;2023-04-24T15:14:15;12.30;;;6.45;;
71947;SDS011;63257;55.082;38.772;2023-04-24T15:16:42;10.47;;;6.60;;
71947;SDS011;63257;55.082;38.772;2023-04-24T15:19:08;10.63;;;6.50;;
71947;SDS011;63257;55.082;38.772;2023-04-24T15:21:35;11.48;;;6.65;;
71947;SDS011;63257;55.082;38.772;2023-04-24T15:24:02;10.45;;;6.60;;
71947;SDS011;63257;55.082;38.772;2023-04-24T15:26:28;11.50;;;7.05;;
71947;SDS011;63257;55.082;38.772;2023-04-24T15:28:54;10.40;;;7.30;;
71947;SDS011;63257;55.082;38.772;2023-04-24T15:31:20;14.43;;;8.90;;
71947;SDS011;63257;55.082;38.772;2023-04-24T15:33:48;18.30;;;8.57;;
71947;SDS011;63257;55.082;38.772;2023-04-24T15:36:17;26.37;;;14.20;;
71947;SDS011;63257;55.082;38.772;2023-04-24T15:38:44;13.57;;;8.85;;